sensor_id;sensor_type;location;lat;lon;timestamp;P1;durP1;ratioP1;P2;durP2;ratioP2
39740;SDS011;25426;53.478;10.190;2023-03-14T00:00:30;6.15;;;3.30;;
39740;SDS011;25426;53.478;10.190;2023-03-14T00:03:01;6.78;;;3.75;;
39740;SDS011;25426;53.478;10.190;2023-03-14T00:05:33;5.85;;;3.58;;
39740;SDS011;25426;53.478;10.190;2023-03-14T00:08:04;4.80;;;3.15;;
39740;SDS011;25426;53.478;10.190;2023-03-14T00:10:36;7.97;;;3.67;;
39740;SDS011;25426;53.478;10.190;2023-03-14T00:13:08;11.50;;;4.47;;
39740;SDS011;25426;53.478;10.190;2023-03-14T00:15:38;8.57;;;3.67;;
39740;SDS011;25426;53.478;10.190;2023-03-14T00:18:09;6.70;;;3.90;;
39740;SDS011;25426;53.478;10.190;2023-03-14T00:20:40;9.73;;;3.80;;
39740;SDS011;25426;53.478;10.190;2023-03-14T00:23:11;6.70;;;3.45;;
39740;SDS011;25426;53.478;10.190;2023-03-14T00:25:42;5.40;;;2.88;;
39740;SDS011;25426;53.478;10.190;2023-03-14T00:28:13;7.38;;;3.67;;
39740;SDS011;25426;53.478;10.190;2023-03-14T00:30:44;9.05;;;4.10;;
39740;SDS011;25426;53.478;10.190;2023-03-14T00:33:15;7.80;;;3.75;;
39740;SDS011;25426;53.478;10.190;2023-03-14T00:35:56;8.20;;;3.85;;
39740;SDS011;25426;53.478;10.190;2023-03-14T00:38:34;7.57;;;3.20;;
39740;SDS011;25426;53.478;10.190;2023-03-14T00:41:06;6.97;;;3.15;;
39740;SDS011;25426;53.478;10.190;2023-03-14T00:43:45;6.75;;;3.38;;
39740;SDS011;25426;53.478;10.190;2023-03-14T00:46:17;6.97;;;3.75;;
39740;SDS011;25426;53.478;10.190;2023-03-14T00:48:49;7.38;;;3.53;;
39740;SDS011;25426;53.478;10.190;2023-03-14T00:51:20;6.95;;;3.85;;
39740;SDS011;25426;53.478;10.190;2023-03-14T00:53:51;7.40;;;3.53;;
39740;SDS011;25426;53.478;10.190;2023-03-14T00:56:22;8.18;;;3.38;;
39740;SDS011;25426;53.478;10.190;2023-03-14T00:58:54;8.48;;;3.90;;
39740;SDS011;25426;53.478;10.190;2023-03-14T01:01:26;7.65;;;3.58;;
39740;SDS011;25426;53.478;10.190;2023-03-14T01:03:57;9.18;;;4.00;;
39740;SDS011;25426;53.478;10.190;2023-03-14T01:06:28;6.85;;;3.60;;
39740;SDS011;25426;53.478;10.190;2023-03-14T01:08:59;7.70;;;3.67;;
39740;SDS011;25426;53.478;10.190;2023-03-14T01:11:32;7.97;;;3.53;;
39740;SDS011;25426;53.478;10.190;2023-03-14T01:14:04;6.20;;;3.72;;
39740;SDS011;25426;53.478;10.190;2023-03-14T01:16:35;7.20;;;3.58;;
39740;SDS011;25426;53.478;10.190;2023-03-14T01:19:06;7.82;;;3.60;;
39740;SDS011;25426;53.478;10.190;2023-03-14T01:21:37;7.47;;;3.65;;
39740;SDS011;25426;53.478;10.190;2023-03-14T01:24:10;8.32;;;3.72;;
39740;SDS011;25426;53.478;10.190;2023-03-14T01:26:41;6.38;;;3.85;;
39740;SDS011;25426;53.478;10.190;2023-03-14T01:29:12;6.05;;;4.00;;
39740;SDS011;25426;53.478;10.190;2023-03-14T01:31:44;6.55;;;3.50;;
39740;SDS011;25426;53.478;10.190;2023-03-14T01:34:15;16.95;;;4.13;;
39740;SDS011;25426;53.478;10.190;2023-03-14T01:36:46;6.30;;;3.53;;
39740;SDS011;25426;53.478;10.190;2023-03-14T01:39:17;6.57;;;3.85;;
39740;SDS011;25426;53.478;10.190;2023-03-14T01:41:49;9.00;;;4.03;;
39740;SDS011;25426;53.478;10.190;2023-03-14T01:44:20;7.75;;;4.18;;
39740;SDS011;25426;53.478;10.190;2023-03-14T01:46:51;14.23;;;4.22;;
39740;SDS011;25426;53.478;10.190;2023-03-14T01:49:30;6.63;;;3.72;;
39740;SDS011;25426;53.478;10.190;2023-03-14T01:52:28;7.57;;;4.40;;
39740;SDS011;25426;53.478;10.190;2023-03-14T01:55:06;7.60;;;4.30;;
39740;SDS011;25426;53.478;10.190;2023-03-14T01:57:45;8.02;;;3.92;;
39740;SDS011;25426;53.478;10.190;2023-03-14T02:00:21;8.38;;;4.20;;
39740;SDS011;25426;53.478;10.190;2023-03-14T02:02:55;12.23;;;5.15;;
39740;SDS011;25426;53.478;10.190;2023-03-14T02:05:35;11.40;;;4.13;;
39740;SDS011;25426;53.478;10.190;2023-03-14T02:08:15;7.65;;;4.00;;
39740;SDS011;25426;53.478;10.190;2023-03-14T02:10:58;11.80;;;4.22;;
39740;SDS011;25426;53.478;10.190;2023-03-14T02:13:55;7.72;;;3.90;;
39740;SDS011;25426;53.478;10.190;2023-03-14T02:16:49;13.05;;;4.22;;
39740;SDS011;25426;53.478;10.190;2023-03-14T02:19:37;9.60;;;3.47;;
39740;SDS011;25426;53.478;10.190;2023-03-14T02:22:57;8.15;;;3.65;;
39740;SDS011;25426;53.478;10.190;2023-03-14T02:25:37;10.75;;;4.20;;
39740;SDS011;25426;53.478;10.190;2023-03-14T02:28:18;11.32;;;3.67;;
39740;SDS011;25426;53.478;10.190;2023-03-14T02:30:52;9.95;;;4.70;;
39740;SDS011;25426;53.478;10.190;2023-03-14T02:33:24;8.93;;;4.03;;
39740;SDS011;25426;53.478;10.190;2023-03-14T02:35:56;9.85;;;3.42;;
39740;SDS011;25426;53.478;10.190;2023-03-14T02:41:28;9.40;;;4.28;;
39740;SDS011;25426;53.478;10.190;2023-03-14T02:44:05;9.55;;;4.10;;
39740;SDS011;25426;53.478;10.190;2023-03-14T02:46:37;8.07;;;3.63;;
39740;SDS011;25426;53.478;10.190;2023-03-14T02:49:08;10.38;;;4.10;;
39740;SDS011;25426;53.478;10.190;2023-03-14T02:51:43;7.25;;;4.32;;
39740;SDS011;25426;53.478;10.190;2023-03-14T02:54:15;10.07;;;3.85;;
39740;SDS011;25426;53.478;10.190;2023-03-14T02:56:47;7.00;;;3.70;;
39740;SDS011;25426;53.478;10.190;2023-03-14T02:59:18;8.02;;;3.88;;
39740;SDS011;25426;53.478;10.190;2023-03-14T03:01:55;6.38;;;3.92;;
39740;SDS011;25426;53.478;10.190;2023-03-14T03:04:28;9.05;;;4.57;;
39740;SDS011;25426;53.478;10.190;2023-03-14T03:06:59;7.50;;;3.85;;
39740;SDS011;25426;53.478;10.190;2023-03-14T03:09:30;9.20;;;3.40;;
39740;SDS011;25426;53.478;10.190;2023-03-14T03:12:01;11.23;;;4.03;;
39740;SDS011;25426;53.478;10.190;2023-03-14T03:14:33;8.60;;;3.25;;
39740;SDS011;25426;53.478;10.190;2023-03-14T03:17:07;5.97;;;3.58;;
39740;SDS011;25426;53.478;10.190;2023-03-14T03:19:38;5.88;;;3.45;;
39740;SDS011;25426;53.478;10.190;2023-03-14T03:22:09;8.93;;;3.75;;
39740;SDS011;25426;53.478;10.190;2023-03-14T03:24:44;7.82;;;3.22;;
39740;SDS011;25426;53.478;10.190;2023-03-14T03:27:15;7.90;;;3.63;;
39740;SDS011;25426;53.478;10.190;2023-03-14T03:29:46;8.32;;;4.13;;
39740;SDS011;25426;53.478;10.190;2023-03-14T03:32:17;4.60;;;3.35;;
39740;SDS011;25426;53.478;10.190;2023-03-14T03:34:48;7.13;;;3.47;;
39740;SDS011;25426;53.478;10.190;2023-03-14T03:37:19;6.38;;;3.25;;
39740;SDS011;25426;53.478;10.190;2023-03-14T03:39:50;5.38;;;3.47;;
39740;SDS011;25426;53.478;10.190;2023-03-14T03:42:22;9.07;;;3.75;;
39740;SDS011;25426;53.478;10.190;2023-03-14T03:44:53;6.75;;;3.30;;
39740;SDS011;25426;53.478;10.190;2023-03-14T03:47:25;6.25;;;3.55;;
39740;SDS011;25426;53.478;10.190;2023-03-14T03:49:56;7.75;;;3.40;;
39740;SDS011;25426;53.478;10.190;2023-03-14T03:52:27;5.82;;;3.53;;
39740;SDS011;25426;53.478;10.190;2023-03-14T03:54:58;6.47;;;3.28;;
39740;SDS011;25426;53.478;10.190;2023-03-14T03:57:31;7.72;;;3.25;;
39740;SDS011;25426;53.478;10.190;2023-03-14T04:00:02;7.78;;;3.30;;
39740;SDS011;25426;53.478;10.190;2023-03-14T04:02:44;7.18;;;3.55;;
39740;SDS011;25426;53.478;10.190;2023-03-14T04:05:18;5.45;;;3.40;;
39740;SDS011;25426;53.478;10.190;2023-03-14T04:07:59;5.97;;;3.45;;
39740;SDS011;25426;53.478;10.190;2023-03-14T04:10:35;6.82;;;3.45;;
39740;SDS011;25426;53.478;10.190;2023-03-14T04:13:16;8.75;;;4.05;;
39740;SDS011;25426;53.478;10.190;2023-03-14T04:15:52;8.13;;;4.20;;
39740;SDS011;25426;53.478;10.190;2023-03-14T04:18:28;9.75;;;4.32;;
39740;SDS011;25426;53.478;10.190;2023-03-14T04:21:00;10.02;;;4.82;;
39740;SDS011;25426;53.478;10.190;2023-03-14T04:23:40;12.88;;;4.43;;
39740;SDS011;25426;53.478;10.190;2023-03-14T04:26:11;10.70;;;3.90;;
39740;SDS011;25426;53.478;10.190;2023-03-14T04:28:42;7.57;;;3.80;;
39740;SDS011;25426;53.478;10.190;2023-03-14T04:31:15;8.98;;;4.47;;
39740;SDS011;25426;53.478;10.190;2023-03-14T04:33:50;7.65;;;4.18;;
39740;SDS011;25426;53.478;10.190;2023-03-14T04:36:28;9.52;;;3.90;;
39740;SDS011;25426;53.478;10.190;2023-03-14T04:39:05;8.73;;;4.07;;
39740;SDS011;25426;53.478;10.190;2023-03-14T04:41:39;7.88;;;4.00;;
39740;SDS011;25426;53.478;10.190;2023-03-14T04:44:12;7.40;;;3.72;;
39740;SDS011;25426;53.478;10.190;2023-03-14T04:46:43;10.80;;;4.63;;
39740;SDS011;25426;53.478;10.190;2023-03-14T04:49:15;12.02;;;4.10;;
39740;SDS011;25426;53.478;10.190;2023-03-14T04:51:46;7.30;;;3.75;;
39740;SDS011;25426;53.478;10.190;2023-03-14T04:54:18;9.73;;;4.18;;
39740;SDS011;25426;53.478;10.190;2023-03-14T04:56:52;6.20;;;3.67;;
39740;SDS011;25426;53.478;10.190;2023-03-14T04:59:23;5.97;;;3.83;;
39740;SDS011;25426;53.478;10.190;2023-03-14T05:01:58;8.38;;;4.00;;
39740;SDS011;25426;53.478;10.190;2023-03-14T05:04:46;12.70;;;4.22;;
39740;SDS011;25426;53.478;10.190;2023-03-14T05:07:27;7.43;;;3.95;;
39740;SDS011;25426;53.478;10.190;2023-03-14T05:10:07;8.85;;;3.40;;
39740;SDS011;25426;53.478;10.190;2023-03-14T05:12:58;5.50;;;3.20;;
39740;SDS011;25426;53.478;10.190;2023-03-14T05:15:49;6.03;;;2.88;;
39740;SDS011;25426;53.478;10.190;2023-03-14T05:18:44;6.60;;;3.42;;
39740;SDS011;25426;53.478;10.190;2023-03-14T05:21:34;6.47;;;3.63;;
39740;SDS011;25426;53.478;10.190;2023-03-14T05:24:23;8.88;;;4.13;;
39740;SDS011;25426;53.478;10.190;2023-03-14T05:27:09;8.43;;;3.70;;
39740;SDS011;25426;53.478;10.190;2023-03-14T05:29:55;7.55;;;4.53;;
39740;SDS011;25426;53.478;10.190;2023-03-14T05:32:55;8.20;;;4.30;;
39740;SDS011;25426;53.478;10.190;2023-03-14T05:35:54;8.25;;;3.85;;
39740;SDS011;25426;53.478;10.190;2023-03-14T05:38:42;4.70;;;2.92;;
39740;SDS011;25426;53.478;10.190;2023-03-14T05:41:33;7.72;;;3.90;;
39740;SDS011;25426;53.478;10.190;2023-03-14T05:44:22;7.97;;;3.65;;
39740;SDS011;25426;53.478;10.190;2023-03-14T05:47:13;8.05;;;4.18;;
39740;SDS011;25426;53.478;10.190;2023-03-14T05:50:05;6.38;;;3.42;;
39740;SDS011;25426;53.478;10.190;2023-03-14T05:52:44;7.35;;;3.78;;
39740;SDS011;25426;53.478;10.190;2023-03-14T05:55:34;8.57;;;3.83;;
39740;SDS011;25426;53.478;10.190;2023-03-14T05:58:17;7.60;;;3.63;;
39740;SDS011;25426;53.478;10.190;2023-03-14T06:01:11;8.75;;;3.72;;
39740;SDS011;25426;53.478;10.190;2023-03-14T06:03:58;7.88;;;3.72;;
39740;SDS011;25426;53.478;10.190;2023-03-14T06:06:29;7.10;;;3.67;;
39740;SDS011;25426;53.478;10.190;2023-03-14T06:09:02;5.70;;;3.55;;
39740;SDS011;25426;53.478;10.190;2023-03-14T06:11:36;8.32;;;4.07;;
39740;SDS011;25426;53.478;10.190;2023-03-14T06:14:09;9.10;;;4.00;;
39740;SDS011;25426;53.478;10.190;2023-03-14T06:16:43;7.90;;;3.95;;
39740;SDS011;25426;53.478;10.190;2023-03-14T06:19:15;8.13;;;3.90;;
39740;SDS011;25426;53.478;10.190;2023-03-14T06:21:46;7.63;;;4.00;;
39740;SDS011;25426;53.478;10.190;2023-03-14T06:24:17;5.05;;;3.72;;
39740;SDS011;25426;53.478;10.190;2023-03-14T06:26:51;7.32;;;3.60;;
39740;SDS011;25426;53.478;10.190;2023-03-14T06:29:23;8.25;;;4.63;;
39740;SDS011;25426;53.478;10.190;2023-03-14T06:31:54;5.57;;;3.05;;
39740;SDS011;25426;53.478;10.190;2023-03-14T06:34:25;5.05;;;3.00;;
39740;SDS011;25426;53.478;10.190;2023-03-14T06:36:57;7.32;;;4.00;;
39740;SDS011;25426;53.478;10.190;2023-03-14T06:39:30;6.38;;;3.58;;
39740;SDS011;25426;53.478;10.190;2023-03-14T06:42:08;6.47;;;3.03;;
39740;SDS011;25426;53.478;10.190;2023-03-14T06:44:41;8.43;;;3.47;;
39740;SDS011;25426;53.478;10.190;2023-03-14T06:47:12;6.97;;;3.08;;
39740;SDS011;25426;53.478;10.190;2023-03-14T06:49:46;6.35;;;3.35;;
39740;SDS011;25426;53.478;10.190;2023-03-14T06:52:18;4.63;;;2.78;;
39740;SDS011;25426;53.478;10.190;2023-03-14T06:54:49;6.88;;;3.53;;
39740;SDS011;25426;53.478;10.190;2023-03-14T06:57:23;7.05;;;3.05;;
39740;SDS011;25426;53.478;10.190;2023-03-14T06:59:54;7.72;;;3.35;;
39740;SDS011;25426;53.478;10.190;2023-03-14T07:02:26;6.80;;;2.97;;
39740;SDS011;25426;53.478;10.190;2023-03-14T07:04:57;5.53;;;2.88;;
39740;SDS011;25426;53.478;10.190;2023-03-14T07:07:28;5.57;;;2.85;;
39740;SDS011;25426;53.478;10.190;2023-03-14T07:09:59;6.18;;;3.22;;
39740;SDS011;25426;53.478;10.190;2023-03-14T07:12:31;5.20;;;2.97;;
39740;SDS011;25426;53.478;10.190;2023-03-14T07:15:02;5.03;;;2.35;;
39740;SDS011;25426;53.478;10.190;2023-03-14T07:17:34;5.30;;;2.75;;
39740;SDS011;25426;53.478;10.190;2023-03-14T07:20:05;4.88;;;2.88;;
39740;SDS011;25426;53.478;10.190;2023-03-14T07:22:39;3.30;;;2.38;;
39740;SDS011;25426;53.478;10.190;2023-03-14T07:25:10;4.25;;;2.60;;
39740;SDS011;25426;53.478;10.190;2023-03-14T07:27:45;5.97;;;2.75;;
39740;SDS011;25426;53.478;10.190;2023-03-14T07:30:18;8.05;;;2.78;;
39740;SDS011;25426;53.478;10.190;2023-03-14T07:32:51;5.80;;;1.90;;
39740;SDS011;25426;53.478;10.190;2023-03-14T07:35:22;3.67;;;1.95;;
39740;SDS011;25426;53.478;10.190;2023-03-14T07:37:53;4.68;;;2.17;;
39740;SDS011;25426;53.478;10.190;2023-03-14T07:40:32;4.75;;;1.90;;
39740;SDS011;25426;53.478;10.190;2023-03-14T07:43:03;4.53;;;1.90;;
39740;SDS011;25426;53.478;10.190;2023-03-14T07:46:00;3.58;;;1.60;;
39740;SDS011;25426;53.478;10.190;2023-03-14T07:48:31;3.53;;;1.92;;
39740;SDS011;25426;53.478;10.190;2023-03-14T07:51:02;4.53;;;2.13;;
39740;SDS011;25426;53.478;10.190;2023-03-14T07:53:33;2.67;;;1.60;;
39740;SDS011;25426;53.478;10.190;2023-03-14T07:56:04;4.40;;;1.92;;
39740;SDS011;25426;53.478;10.190;2023-03-14T07:58:36;4.78;;;2.53;;
39740;SDS011;25426;53.478;10.190;2023-03-14T08:01:07;4.35;;;1.90;;
39740;SDS011;25426;53.478;10.190;2023-03-14T08:03:38;5.85;;;2.40;;
39740;SDS011;25426;53.478;10.190;2023-03-14T08:06:09;5.72;;;2.45;;
39740;SDS011;25426;53.478;10.190;2023-03-14T08:08:40;7.03;;;3.17;;
39740;SDS011;25426;53.478;10.190;2023-03-14T08:11:11;5.72;;;2.90;;
39740;SDS011;25426;53.478;10.190;2023-03-14T08:13:42;5.50;;;2.83;;
39740;SDS011;25426;53.478;10.190;2023-03-14T08:16:19;4.53;;;2.90;;
39740;SDS011;25426;53.478;10.190;2023-03-14T08:18:50;9.60;;;3.38;;
39740;SDS011;25426;53.478;10.190;2023-03-14T08:21:21;5.95;;;3.50;;
39740;SDS011;25426;53.478;10.190;2023-03-14T08:23:52;6.85;;;2.63;;
39740;SDS011;25426;53.478;10.190;2023-03-14T08:26:23;6.60;;;3.47;;
39740;SDS011;25426;53.478;10.190;2023-03-14T08:28:54;8.25;;;3.65;;
39740;SDS011;25426;53.478;10.190;2023-03-14T08:31:25;5.28;;;3.45;;
39740;SDS011;25426;53.478;10.190;2023-03-14T08:33:59;8.02;;;3.78;;
39740;SDS011;25426;53.478;10.190;2023-03-14T08:36:30;7.63;;;4.13;;
39740;SDS011;25426;53.478;10.190;2023-03-14T08:39:01;7.78;;;4.38;;
39740;SDS011;25426;53.478;10.190;2023-03-14T08:41:34;14.23;;;5.68;;
39740;SDS011;25426;53.478;10.190;2023-03-14T08:44:10;6.55;;;4.47;;
39740;SDS011;25426;53.478;10.190;2023-03-14T08:46:41;8.02;;;4.93;;
39740;SDS011;25426;53.478;10.190;2023-03-14T08:49:12;6.97;;;5.55;;
39740;SDS011;25426;53.478;10.190;2023-03-14T08:51:44;12.90;;;6.07;;
39740;SDS011;25426;53.478;10.190;2023-03-14T08:54:15;12.10;;;6.15;;
39740;SDS011;25426;53.478;10.190;2023-03-14T08:56:46;9.60;;;5.13;;
39740;SDS011;25426;53.478;10.190;2023-03-14T08:59:17;12.13;;;5.22;;
39740;SDS011;25426;53.478;10.190;2023-03-14T09:01:48;9.07;;;5.32;;
39740;SDS011;25426;53.478;10.190;2023-03-14T09:04:20;9.88;;;5.40;;
39740;SDS011;25426;53.478;10.190;2023-03-14T09:06:54;10.77;;;5.18;;
39740;SDS011;25426;53.478;10.190;2023-03-14T09:09:25;10.95;;;5.18;;
39740;SDS011;25426;53.478;10.190;2023-03-14T09:12:02;12.38;;;5.57;;
39740;SDS011;25426;53.478;10.190;2023-03-14T09:14:34;10.23;;;5.22;;
39740;SDS011;25426;53.478;10.190;2023-03-14T09:17:05;8.35;;;5.43;;
39740;SDS011;25426;53.478;10.190;2023-03-14T09:19:37;7.38;;;4.68;;
39740;SDS011;25426;53.478;10.190;2023-03-14T09:22:11;10.70;;;7.20;;
39740;SDS011;25426;53.478;10.190;2023-03-14T09:24:42;11.60;;;4.70;;
39740;SDS011;25426;53.478;10.190;2023-03-14T09:27:16;7.35;;;5.28;;
39740;SDS011;25426;53.478;10.190;2023-03-14T09:29:46;8.88;;;4.95;;
39740;SDS011;25426;53.478;10.190;2023-03-14T09:32:17;6.80;;;4.07;;
39740;SDS011;25426;53.478;10.190;2023-03-14T09:34:48;6.35;;;3.53;;
39740;SDS011;25426;53.478;10.190;2023-03-14T09:37:19;4.78;;;3.53;;
39740;SDS011;25426;53.478;10.190;2023-03-14T09:39:50;8.20;;;4.25;;
39740;SDS011;25426;53.478;10.190;2023-03-14T09:42:23;7.90;;;3.58;;
39740;SDS011;25426;53.478;10.190;2023-03-14T09:44:59;7.72;;;4.00;;
39740;SDS011;25426;53.478;10.190;2023-03-14T09:47:38;6.30;;;3.47;;
39740;SDS011;25426;53.478;10.190;2023-03-14T09:50:13;9.02;;;4.47;;
39740;SDS011;25426;53.478;10.190;2023-03-14T09:52:46;8.68;;;5.47;;
39740;SDS011;25426;53.478;10.190;2023-03-14T09:55:22;8.50;;;4.30;;
39740;SDS011;25426;53.478;10.190;2023-03-14T09:57:58;9.73;;;4.78;;
39740;SDS011;25426;53.478;10.190;2023-03-14T10:00:33;7.63;;;4.30;;
39740;SDS011;25426;53.478;10.190;2023-03-14T10:05:42;8.07;;;3.60;;
39740;SDS011;25426;53.478;10.190;2023-03-14T10:08:13;5.30;;;4.05;;
39740;SDS011;25426;53.478;10.190;2023-03-14T10:10:44;8.27;;;3.97;;
39740;SDS011;25426;53.478;10.190;2023-03-14T10:13:16;6.57;;;3.92;;
39740;SDS011;25426;53.478;10.190;2023-03-14T10:16:02;8.43;;;3.10;;
39740;SDS011;25426;53.478;10.190;2023-03-14T10:18:37;3.22;;;1.52;;
39740;SDS011;25426;53.478;10.190;2023-03-14T10:24:09;1.52;;;1.13;;
39740;SDS011;25426;53.478;10.190;2023-03-14T10:27:04;1.67;;;1.00;;
39740;SDS011;25426;53.478;10.190;2023-03-14T10:30:00;3.45;;;1.20;;
39740;SDS011;25426;53.478;10.190;2023-03-14T10:32:37;1.40;;;1.17;;
39740;SDS011;25426;53.478;10.190;2023-03-14T10:37:50;1.88;;;1.30;;
39740;SDS011;25426;53.478;10.190;2023-03-14T10:40:39;1.65;;;1.02;;
39740;SDS011;25426;53.478;10.190;2023-03-14T10:43:17;2.03;;;1.15;;
39740;SDS011;25426;53.478;10.190;2023-03-14T10:45:57;2.83;;;1.40;;
39740;SDS011;25426;53.478;10.190;2023-03-14T10:48:59;2.15;;;1.42;;
39740;SDS011;25426;53.478;10.190;2023-03-14T10:51:36;2.60;;;1.30;;
39740;SDS011;25426;53.478;10.190;2023-03-14T10:54:14;1.23;;;0.82;;
39740;SDS011;25426;53.478;10.190;2023-03-14T10:56:57;1.38;;;0.95;;
39740;SDS011;25426;53.478;10.190;2023-03-14T10:59:35;1.85;;;1.08;;
39740;SDS011;25426;53.478;10.190;2023-03-14T11:05:34;1.55;;;0.85;;
39740;SDS011;25426;53.478;10.190;2023-03-14T11:11:27;1.77;;;0.90;;
39740;SDS011;25426;53.478;10.190;2023-03-14T11:14:08;1.08;;;0.90;;
39740;SDS011;25426;53.478;10.190;2023-03-14T11:17:12;2.45;;;1.10;;
39740;SDS011;25426;53.478;10.190;2023-03-14T11:26:13;2.65;;;1.70;;
39740;SDS011;25426;53.478;10.190;2023-03-14T11:29:20;1.23;;;0.95;;
39740;SDS011;25426;53.478;10.190;2023-03-14T11:32:00;1.80;;;1.20;;
39740;SDS011;25426;53.478;10.190;2023-03-14T11:34:39;3.10;;;1.35;;
39740;SDS011;25426;53.478;10.190;2023-03-14T11:37:29;3.80;;;1.20;;
39740;SDS011;25426;53.478;10.190;2023-03-14T11:40:19;2.40;;;1.10;;
39740;SDS011;25426;53.478;10.190;2023-03-14T11:46:05;2.97;;;1.58;;
39740;SDS011;25426;53.478;10.190;2023-03-14T11:52:08;3.80;;;1.55;;
39740;SDS011;25426;53.478;10.190;2023-03-14T11:57:30;3.80;;;1.48;;
39740;SDS011;25426;53.478;10.190;2023-03-14T12:00:18;4.55;;;1.80;;
39740;SDS011;25426;53.478;10.190;2023-03-14T12:03:02;3.85;;;1.67;;
39740;SDS011;25426;53.478;10.190;2023-03-14T12:09:05;7.72;;;1.85;;
39740;SDS011;25426;53.478;10.190;2023-03-14T12:17:17;6.22;;;2.00;;
39740;SDS011;25426;53.478;10.190;2023-03-14T12:20:04;5.30;;;2.00;;
39740;SDS011;25426;53.478;10.190;2023-03-14T12:22:51;3.45;;;2.45;;
39740;SDS011;25426;53.478;10.190;2023-03-14T12:25:27;4.95;;;2.60;;
39740;SDS011;25426;53.478;10.190;2023-03-14T12:28:05;4.07;;;2.10;;
39740;SDS011;25426;53.478;10.190;2023-03-14T12:30:50;7.25;;;2.70;;
39740;SDS011;25426;53.478;10.190;2023-03-14T12:33:28;6.60;;;2.45;;
39740;SDS011;25426;53.478;10.190;2023-03-14T12:36:01;11.48;;;2.33;;
39740;SDS011;25426;53.478;10.190;2023-03-14T12:41:27;7.65;;;3.22;;
39740;SDS011;25426;53.478;10.190;2023-03-14T12:47:00;9.35;;;2.72;;
39740;SDS011;25426;53.478;10.190;2023-03-14T12:49:48;8.15;;;2.72;;
39740;SDS011;25426;53.478;10.190;2023-03-14T13:07:13;10.40;;;3.13;;
39740;SDS011;25426;53.478;10.190;2023-03-14T13:10:29;7.68;;;2.53;;
39740;SDS011;25426;53.478;10.190;2023-03-14T13:15:58;5.85;;;2.00;;
39740;SDS011;25426;53.478;10.190;2023-03-14T13:18:37;12.52;;;3.42;;
39740;SDS011;25426;53.478;10.190;2023-03-14T13:21:19;7.32;;;2.53;;
39740;SDS011;25426;53.478;10.190;2023-03-14T13:23:58;10.93;;;2.65;;
39740;SDS011;25426;53.478;10.190;2023-03-14T13:26:36;11.95;;;2.80;;
39740;SDS011;25426;53.478;10.190;2023-03-14T13:29:22;10.45;;;3.35;;
39740;SDS011;25426;53.478;10.190;2023-03-14T13:32:15;12.25;;;2.95;;
39740;SDS011;25426;53.478;10.190;2023-03-14T13:34:54;10.15;;;3.47;;
39740;SDS011;25426;53.478;10.190;2023-03-14T13:37:27;6.93;;;2.90;;
39740;SDS011;25426;53.478;10.190;2023-03-14T13:39:58;12.85;;;3.45;;
39740;SDS011;25426;53.478;10.190;2023-03-14T13:42:29;14.23;;;4.18;;
39740;SDS011;25426;53.478;10.190;2023-03-14T13:45:00;17.80;;;3.63;;
39740;SDS011;25426;53.478;10.190;2023-03-14T13:47:31;12.68;;;3.33;;
39740;SDS011;25426;53.478;10.190;2023-03-14T13:50:02;9.45;;;2.53;;
39740;SDS011;25426;53.478;10.190;2023-03-14T13:52:37;11.82;;;2.47;;
39740;SDS011;25426;53.478;10.190;2023-03-14T13:55:17;11.38;;;2.95;;
39740;SDS011;25426;53.478;10.190;2023-03-14T13:57:49;8.45;;;2.58;;
39740;SDS011;25426;53.478;10.190;2023-03-14T14:00:27;12.60;;;3.03;;
39740;SDS011;25426;53.478;10.190;2023-03-14T14:02:59;7.72;;;1.88;;
39740;SDS011;25426;53.478;10.190;2023-03-14T14:05:30;12.32;;;3.53;;
39740;SDS011;25426;53.478;10.190;2023-03-14T14:08:03;8.05;;;2.85;;
39740;SDS011;25426;53.478;10.190;2023-03-14T14:10:35;6.32;;;2.03;;
39740;SDS011;25426;53.478;10.190;2023-03-14T14:13:12;12.13;;;3.25;;
39740;SDS011;25426;53.478;10.190;2023-03-14T14:15:49;8.65;;;3.40;;
39740;SDS011;25426;53.478;10.190;2023-03-14T14:18:23;7.60;;;2.47;;
39740;SDS011;25426;53.478;10.190;2023-03-14T14:20:56;15.38;;;3.05;;
39740;SDS011;25426;53.478;10.190;2023-03-14T14:23:28;7.88;;;2.60;;
39740;SDS011;25426;53.478;10.190;2023-03-14T14:26:01;8.55;;;2.55;;
39740;SDS011;25426;53.478;10.190;2023-03-14T14:28:36;11.10;;;3.17;;
39740;SDS011;25426;53.478;10.190;2023-03-14T14:34:01;13.75;;;3.33;;
39740;SDS011;25426;53.478;10.190;2023-03-14T14:36:37;13.40;;;3.08;;
39740;SDS011;25426;53.478;10.190;2023-03-14T14:41:56;9.70;;;3.10;;
39740;SDS011;25426;53.478;10.190;2023-03-14T14:44:32;11.48;;;3.35;;
39740;SDS011;25426;53.478;10.190;2023-03-14T14:47:04;15.98;;;4.43;;
39740;SDS011;25426;53.478;10.190;2023-03-14T14:49:35;9.93;;;2.85;;
39740;SDS011;25426;53.478;10.190;2023-03-14T14:54:52;10.77;;;2.65;;
39740;SDS011;25426;53.478;10.190;2023-03-14T14:57:31;13.68;;;3.10;;
39740;SDS011;25426;53.478;10.190;2023-03-14T15:00:17;8.05;;;2.40;;
39740;SDS011;25426;53.478;10.190;2023-03-14T15:02:55;7.72;;;1.95;;
39740;SDS011;25426;53.478;10.190;2023-03-14T15:05:29;8.65;;;2.60;;
39740;SDS011;25426;53.478;10.190;2023-03-14T15:08:11;9.68;;;2.33;;
39740;SDS011;25426;53.478;10.190;2023-03-14T15:10:45;8.38;;;2.60;;
39740;SDS011;25426;53.478;10.190;2023-03-14T15:13:16;12.10;;;2.80;;
39740;SDS011;25426;53.478;10.190;2023-03-14T15:15:49;7.93;;;2.63;;
39740;SDS011;25426;53.478;10.190;2023-03-14T15:18:27;6.25;;;2.40;;
39740;SDS011;25426;53.478;10.190;2023-03-14T15:21:00;9.60;;;2.30;;
39740;SDS011;25426;53.478;10.190;2023-03-14T15:23:31;7.35;;;3.55;;
39740;SDS011;25426;53.478;10.190;2023-03-14T15:26:02;10.07;;;2.35;;
39740;SDS011;25426;53.478;10.190;2023-03-14T15:28:41;8.50;;;2.38;;
39740;SDS011;25426;53.478;10.190;2023-03-14T15:31:12;9.63;;;2.97;;
39740;SDS011;25426;53.478;10.190;2023-03-14T15:33:45;8.65;;;3.25;;
39740;SDS011;25426;53.478;10.190;2023-03-14T15:36:19;11.35;;;3.58;;
39740;SDS011;25426;53.478;10.190;2023-03-14T15:39:09;7.60;;;2.60;;
39740;SDS011;25426;53.478;10.190;2023-03-14T15:41:41;10.18;;;2.92;;
39740;SDS011;25426;53.478;10.190;2023-03-14T15:44:12;11.80;;;3.88;;
39740;SDS011;25426;53.478;10.190;2023-03-14T15:46:44;9.52;;;2.80;;
39740;SDS011;25426;53.478;10.190;2023-03-14T15:49:15;11.15;;;2.67;;
39740;SDS011;25426;53.478;10.190;2023-03-14T15:51:46;10.18;;;2.55;;
39740;SDS011;25426;53.478;10.190;2023-03-14T15:54:17;12.63;;;2.47;;
39740;SDS011;25426;53.478;10.190;2023-03-14T15:56:48;9.13;;;2.78;;
39740;SDS011;25426;53.478;10.190;2023-03-14T15:59:19;10.45;;;2.90;;
39740;SDS011;25426;53.478;10.190;2023-03-14T16:01:50;9.20;;;2.83;;
39740;SDS011;25426;53.478;10.190;2023-03-14T16:04:21;10.02;;;3.08;;
39740;SDS011;25426;53.478;10.190;2023-03-14T16:06:52;6.78;;;2.28;;
39740;SDS011;25426;53.478;10.190;2023-03-14T16:09:22;11.23;;;2.47;;
39740;SDS011;25426;53.478;10.190;2023-03-14T16:11:54;9.05;;;3.00;;
39740;SDS011;25426;53.478;10.190;2023-03-14T16:14:25;7.97;;;2.85;;
39740;SDS011;25426;53.478;10.190;2023-03-14T16:16:56;9.90;;;2.53;;
39740;SDS011;25426;53.478;10.190;2023-03-14T16:19:28;12.93;;;3.00;;
39740;SDS011;25426;53.478;10.190;2023-03-14T16:22:00;5.03;;;2.40;;
39740;SDS011;25426;53.478;10.190;2023-03-14T16:24:31;11.38;;;2.75;;
39740;SDS011;25426;53.478;10.190;2023-03-14T16:27:02;13.23;;;2.92;;
39740;SDS011;25426;53.478;10.190;2023-03-14T16:29:33;10.40;;;2.83;;
39740;SDS011;25426;53.478;10.190;2023-03-14T16:32:04;16.85;;;6.68;;
39740;SDS011;25426;53.478;10.190;2023-03-14T16:34:39;13.85;;;3.10;;